TimeMST,TemperatureF,Dew PointF,Humidity,Sea Level PressureIn,VisibilityMPH,Wind Direction,Wind SpeedMPH,Gust SpeedMPH,PrecipitationIn,Events,Conditions,WindDirDegrees,DateUTC
12:53 AM,41.0,18.0,40,30.01,10.0,Calm,Calm,-,N/A,,Clear,0,2012-12-06 07:53:00
1:53 AM,42.1,19.0,40,29.99,10.0,West,3.5,-,N/A,,Overcast,280,2012-12-06 08:53:00
2:53 AM,39.9,18.0,41,29.98,10.0,East,3.5,-,N/A,,Overcast,90,2012-12-06 09:53:00
3:53 AM,39.9,19.0,43,29.98,10.0,Calm,Calm,-,N/A,,Overcast,0,2012-12-06 10:53:00
4:53 AM,41.0,19.9,43,30.00,10.0,Calm,Calm,-,N/A,,Overcast,0,2012-12-06 11:53:00
5:53 AM,41.0,21.0,45,30.01,10.0,NNE,4.6,-,0.00,,Overcast,20,2012-12-06 12:53:00
6:53 AM,39.0,30.0,70,30.04,9.0,West,4.6,-,0.00,Rain,Light Rain,280,2012-12-06 13:53:00
7:53 AM,37.0,35.1,93,30.04,9.0,South,3.5,-,0.05,Rain,Light Rain,190,2012-12-06 14:53:00
8:53 AM,39.0,35.1,86,30.04,10.0,NE,4.6,-,0.01,Rain,Light Rain,40,2012-12-06 15:53:00
9:53 AM,43.0,34.0,71,30.04,10.0,Calm,Calm,-,0.00,,Scattered Clouds,0,2012-12-06 16:53:00
10:53 AM,46.0,37.0,71,30.03,10.0,Calm,Calm,-,N/A,,Clear,0,2012-12-06 17:53:00
11:53 AM,48.9,39.0,69,29.99,10.0,Calm,Calm,-,N/A,,Clear,0,2012-12-06 18:53:00
12:53 PM,48.9,39.0,69,29.97,10.0,NW,3.5,-,N/A,,Clear,310,2012-12-06 19:53:00
1:53 PM,51.1,37.9,61,29.93,10.0,SE,4.6,-,N/A,,Clear,130,2012-12-06 20:53:00
2:53 PM,51.1,39.0,63,29.91,10.0,West,3.5,-,N/A,,Clear,270,2012-12-06 21:53:00
3:53 PM,51.1,39.0,63,29.90,10.0,Calm,Calm,-,N/A,,Clear,0,2012-12-06 22:53:00
4:53 PM,48.0,41.0,77,29.90,10.0,ESE,3.5,-,N/A,,Clear,120,2012-12-06 23:53:00
5:53 PM,45.0,39.9,82,29.91,10.0,Calm,Calm,-,N/A,,Clear,0,2012-12-07 00:53:00
6:53 PM,42.1,39.0,89,29.92,10.0,Calm,Calm,-,N/A,,Clear,0,2012-12-07 01:53:00
7:53 PM,39.0,37.0,93,29.94,10.0,Calm,Calm,-,N/A,,Clear,0,2012-12-07 02:53:00
8:53 PM,37.0,36.0,96,29.94,10.0,Calm,Calm,-,N/A,,Clear,0,2012-12-07 03:53:00
9:53 PM,36.0,35.1,97,29.95,10.0,Calm,Calm,-,N/A,,Mostly Cloudy,0,2012-12-07 04:53:00
10:53 PM,36.0,35.1,97,29.94,10.0,Calm,Calm,-,N/A,,Mostly Cloudy,0,2012-12-07 05:53:00
11:53 PM,35.1,33.1,92,29.94,10.0,Calm,Calm,-,N/A,,Mostly Cloudy,0,2012-12-07 06:53:00